Cobden, Canada
Current Conditions -  °F | °C
As of 11:00 AM on Monday 26 Jan 2015 (Local Time) from CYWA Reporting Station
Few Clouds Few Clouds  
Wind Chill: -2°   Ceiling: Unl
Heat Index: -2°   Visibility: 15mi
Dew Point: -13°   Wind: 0mph
Humidity: 60%   Direction: NA
Pressure: 30.2"   Gusts: NA
Location:  45.63°N, 76.88°W
Report Text: CYWA 261600Z 00000KT 15SM FEW220 M19/M25 A3020 RMK CI0 DA-4197FT SLP241
Loading
Personal Weather Stations






























Interactive Weather Map New forecast layout! Learn more

10-Day Weather Forecast

Advertisements
Track Severe Weather on mobile